createdAt,value
2022-10-01T00:01:07.479Z,5.93
2022-10-01T00:03:35.197Z,5.65
2022-10-01T00:06:03.942Z,6.30
2022-10-01T00:08:33.014Z,5.70
2022-10-01T00:10:59.532Z,6.20
2022-10-01T00:13:26.070Z,5.82
2022-10-01T00:15:52.583Z,5.90
2022-10-01T00:18:19.139Z,6.00
2022-10-01T00:20:45.678Z,7.60
2022-10-01T00:23:13.296Z,5.95
2022-10-01T00:25:41.437Z,6.22
2022-10-01T00:28:08.089Z,6.10
2022-10-01T00:30:39.606Z,5.45
2022-10-01T00:33:06.764Z,6.47
2022-10-01T00:35:33.327Z,5.65
2022-10-01T00:37:59.842Z,6.10
2022-10-01T00:40:26.381Z,6.40
2022-10-01T00:42:54.293Z,6.30
2022-10-01T00:45:20.850Z,6.43
2022-10-01T00:47:51.579Z,6.35
2022-10-01T00:50:23.988Z,6.68
2022-10-01T00:52:53.680Z,6.85
2022-10-01T00:55:23.508Z,6.25
2022-10-01T00:57:50.584Z,6.43
2022-10-01T01:00:18.647Z,6.63
2022-10-01T01:02:45.193Z,6.47
2022-10-01T01:05:12.403Z,6.88
2022-10-01T01:07:41.202Z,6.05
2022-10-01T01:10:09.003Z,6.50
2022-10-01T01:13:00.792Z,6.47
2022-10-01T01:15:36.326Z,6.70
2022-10-01T01:18:08.062Z,6.47
2022-10-01T01:20:53.326Z,6.32
2022-10-01T01:23:47.033Z,5.70
2022-10-01T01:26:24.832Z,5.95
2022-10-01T01:28:57.694Z,5.97
2022-10-01T01:31:29.931Z,5.50
2022-10-01T01:33:59.948Z,6.63
2022-10-01T01:36:31.302Z,5.78
2022-10-01T01:39:01.551Z,5.25
2022-10-01T01:41:29.618Z,5.78
2022-10-01T01:44:00.983Z,5.95
2022-10-01T01:46:32.311Z,6.72
2022-10-01T01:49:01.680Z,5.63
2022-10-01T01:51:34.110Z,6.88
2022-10-01T01:54:01.032Z,6.10
2022-10-01T01:56:28.122Z,5.38
2022-10-01T01:58:54.739Z,5.68
2022-10-01T02:01:37.945Z,5.32
2022-10-01T02:04:09.019Z,6.20
2022-10-01T02:06:48.776Z,5.60
2022-10-01T02:09:27.255Z,5.57
2022-10-01T02:12:07.268Z,5.20
2022-10-01T02:14:40.916Z,4.82
2022-10-01T02:17:16.198Z,6.50
2022-10-01T02:19:52.404Z,5.50
2022-10-01T02:22:22.697Z,6.15
2022-10-01T02:24:54.547Z,6.13
2022-10-01T02:29:51.011Z,5.55
2022-10-01T02:32:20.344Z,6.05
2022-10-01T02:34:49.805Z,5.78
2022-10-01T02:37:17.935Z,5.18
2022-10-01T02:39:47.630Z,5.80
2022-10-01T02:42:16.565Z,5.63
2022-10-01T02:44:45.014Z,5.80
2022-10-01T02:47:18.142Z,5.63
2022-10-01T02:49:47.216Z,5.82
2022-10-01T02:52:21.056Z,5.43
2022-10-01T02:54:51.755Z,5.28
2022-10-01T02:57:19.157Z,6.22
2022-10-01T02:59:45.724Z,6.88
2022-10-01T03:02:12.646Z,6.45
2022-10-01T03:04:39.361Z,6.00
2022-10-01T03:07:07.517Z,6.28
2022-10-01T03:09:35.143Z,6.25
2022-10-01T03:12:02.228Z,6.35
2022-10-01T03:14:28.945Z,5.88
2022-10-01T03:16:55.527Z,6.50
2022-10-01T03:19:22.060Z,6.32
2022-10-01T03:21:48.657Z,6.30
2022-10-01T03:24:16.546Z,5.93
2022-10-01T03:26:43.100Z,8.55
2022-10-01T03:29:09.732Z,6.85
2022-10-01T03:31:36.790Z,7.10
2022-10-01T03:34:03.647Z,6.25
2022-10-01T03:36:30.380Z,6.43
2022-10-01T03:38:57.112Z,7.72
2022-10-01T03:41:25.139Z,7.25
2022-10-01T03:43:51.725Z,7.63
2022-10-01T03:46:18.261Z,8.27
2022-10-01T03:48:44.800Z,7.72
2022-10-01T03:51:11.351Z,7.53
2022-10-01T03:53:37.887Z,8.50
2022-10-01T03:56:04.635Z,7.65
2022-10-01T03:58:32.527Z,7.53
2022-10-01T04:00:59.079Z,8.57
2022-10-01T04:03:25.609Z,8.90
2022-10-01T04:05:52.335Z,8.68
2022-10-01T04:08:23.438Z,7.03
2022-10-01T04:10:50.896Z,7.95
2022-10-01T04:13:17.628Z,8.10
2022-10-01T04:15:45.577Z,8.50
2022-10-01T04:18:12.191Z,8.07
2022-10-01T04:20:38.953Z,8.20
2022-10-01T04:23:05.668Z,7.90
2022-10-01T04:25:32.555Z,8.73
2022-10-01T04:28:01.008Z,9.27
2022-10-01T04:30:30.451Z,9.70
2022-10-01T04:32:58.514Z,9.15
2022-10-01T04:35:25.991Z,8.07
2022-10-01T04:37:56.236Z,9.10
2022-10-01T04:40:22.775Z,9.57
2022-10-01T04:42:49.335Z,9.70
2022-10-01T04:45:16.071Z,11.45
2022-10-01T04:47:47.992Z,10.88
2022-10-01T04:52:42.551Z,13.63
2022-10-01T04:55:09.451Z,18.00
2022-10-01T04:57:36.552Z,18.20
2022-10-01T05:00:03.912Z,18.50
2022-10-01T05:02:30.631Z,17.48
2022-10-01T05:04:57.199Z,20.45
2022-10-01T05:07:25.113Z,31.55
2022-10-01T05:09:51.668Z,33.75
2022-10-01T05:12:22.342Z,31.35
2022-10-01T05:14:51.180Z,26.83
2022-10-01T05:17:17.771Z,26.88
2022-10-01T05:19:44.392Z,29.02
2022-10-01T05:22:11.062Z,34.55
2022-10-01T05:24:39.764Z,29.88
2022-10-01T05:27:06.461Z,26.77
2022-10-01T05:29:32.983Z,27.13
2022-10-01T05:31:59.578Z,27.52
2022-10-01T05:34:26.123Z,28.08
2022-10-01T05:36:52.695Z,26.90
2022-10-01T05:39:19.241Z,26.92
2022-10-01T05:41:47.194Z,27.08
2022-10-01T05:44:13.730Z,26.90
2022-10-01T05:46:40.312Z,25.10
2022-10-01T05:49:06.844Z,27.10
2022-10-01T05:51:33.646Z,26.98
2022-10-01T05:54:00.382Z,26.40
2022-10-01T05:56:27.061Z,26.27
2022-10-01T05:58:54.973Z,24.60
2022-10-01T06:01:21.547Z,28.45
2022-10-01T06:03:50.824Z,26.73
2022-10-01T06:06:20.994Z,24.77
2022-10-01T06:08:47.536Z,26.05
2022-10-01T06:11:14.082Z,25.98
2022-10-01T06:13:40.627Z,24.13
2022-10-01T06:16:08.629Z,22.70
2022-10-01T06:18:35.229Z,23.73
2022-10-01T06:21:01.796Z,23.50
2022-10-01T06:23:28.442Z,24.23
2022-10-01T06:25:55.026Z,23.67
2022-10-01T06:28:21.616Z,21.63
2022-10-01T06:30:48.347Z,23.55
2022-10-01T06:33:17.632Z,23.02
2022-10-01T06:35:45.610Z,22.95
2022-10-01T06:38:12.175Z,22.27
2022-10-01T06:40:39.686Z,21.25
2022-10-01T06:43:06.245Z,24.70
2022-10-01T06:45:36.736Z,22.67
2022-10-01T06:48:04.145Z,22.90
2022-10-01T06:50:33.283Z,21.58
2022-10-01T06:53:00.812Z,21.35
2022-10-01T06:55:29.111Z,21.58
2022-10-01T06:57:56.631Z,20.73
2022-10-01T07:00:23.265Z,19.52
2022-10-01T07:02:50.051Z,19.83
2022-10-01T07:05:16.814Z,19.73
2022-10-01T07:07:44.762Z,21.02
2022-10-01T07:10:12.570Z,20.38
2022-10-01T07:12:39.220Z,20.35
2022-10-01T07:15:07.338Z,21.08
2022-10-01T07:17:34.568Z,20.17
2022-10-01T07:20:01.420Z,18.48
2022-10-01T07:22:27.939Z,18.02
2022-10-01T07:24:55.884Z,20.48
2022-10-01T07:27:22.577Z,18.73
2022-10-01T07:29:49.125Z,19.15
2022-10-01T07:32:15.675Z,22.90
2022-10-01T07:34:42.257Z,23.13
2022-10-01T07:37:09.437Z,27.08
2022-10-01T07:39:36.246Z,16.23
2022-10-01T07:42:04.478Z,16.85
2022-10-01T07:44:31.035Z,17.90
2022-10-01T07:46:57.606Z,16.52
2022-10-01T07:49:24.412Z,15.02
2022-10-01T07:51:51.692Z,14.88
2022-10-01T07:54:18.273Z,14.07
2022-10-01T07:56:44.838Z,15.20
2022-10-01T07:59:12.729Z,15.25
2022-10-01T08:01:39.433Z,14.95
2022-10-01T08:04:06.358Z,14.25
2022-10-01T08:06:32.892Z,14.30
2022-10-01T08:08:59.428Z,13.48
2022-10-01T08:11:25.996Z,12.52
2022-10-01T08:13:52.550Z,14.02
2022-10-01T08:16:20.501Z,11.90
2022-10-01T08:18:47.080Z,12.20
2022-10-01T08:21:13.639Z,12.32
2022-10-01T08:23:40.201Z,12.23
2022-10-01T08:26:08.207Z,11.10
2022-10-01T08:28:35.427Z,10.95
2022-10-01T08:31:05.188Z,12.43
2022-10-01T08:33:33.606Z,11.02
2022-10-01T08:36:01.444Z,10.93
2022-10-01T08:38:28.087Z,11.05
2022-10-01T08:40:54.776Z,11.23
2022-10-01T08:43:32.292Z,11.52
2022-10-01T08:46:03.029Z,11.75
2022-10-01T08:48:44.898Z,11.40
2022-10-01T08:51:17.647Z,10.38
2022-10-01T08:53:48.187Z,9.68
2022-10-01T08:56:20.370Z,8.93
2022-10-01T08:58:53.279Z,9.15
2022-10-01T09:01:20.003Z,9.07
2022-10-01T09:03:48.353Z,8.20
2022-10-01T09:06:20.515Z,9.02
2022-10-01T09:09:01.565Z,8.43
2022-10-01T09:11:42.839Z,7.70
2022-10-01T09:14:22.139Z,8.07
2022-10-01T09:16:57.830Z,8.25
2022-10-01T09:19:47.991Z,9.02
2022-10-01T09:22:25.190Z,9.30
2022-10-01T09:25:01.104Z,8.38
2022-10-01T09:27:28.282Z,8.02
2022-10-01T09:29:58.529Z,9.25
2022-10-01T09:32:30.262Z,8.27
2022-10-01T09:35:04.666Z,8.93
2022-10-01T09:37:41.859Z,8.52
2022-10-01T09:40:17.654Z,8.52
2022-10-01T09:42:44.282Z,10.02
2022-10-01T09:45:12.015Z,8.32
2022-10-01T09:47:38.567Z,8.63
2022-10-01T09:50:07.186Z,8.48
2022-10-01T09:52:36.183Z,7.78
2022-10-01T09:55:06.184Z,8.80
2022-10-01T09:57:36.474Z,8.45
2022-10-01T10:00:06.911Z,9.68
2022-10-01T10:02:42.369Z,9.02
2022-10-01T10:05:17.056Z,8.75
2022-10-01T10:07:45.708Z,9.30
2022-10-01T10:10:23.292Z,9.00
2022-10-01T10:12:56.166Z,10.30
2022-10-01T10:15:23.701Z,12.50
2022-10-01T10:17:50.414Z,8.57
2022-10-01T10:20:25.298Z,13.85
2022-10-01T10:22:52.021Z,11.73
2022-10-01T10:25:24.562Z,7.22
2022-10-01T10:27:53.973Z,7.63
2022-10-01T10:30:21.676Z,18.83
2022-10-01T10:32:48.328Z,23.02
2022-10-01T10:35:19.538Z,18.90
2022-10-01T10:37:51.435Z,7.50
2022-10-01T10:42:47.839Z,7.75
2022-10-01T10:45:18.074Z,7.68
2022-10-01T10:47:46.731Z,7.18
2022-10-01T10:50:30.420Z,8.65
2022-10-01T10:52:58.511Z,7.25
2022-10-01T10:55:27.339Z,7.18
2022-10-01T10:57:57.525Z,6.15
2022-10-01T11:00:25.781Z,6.32
2022-10-01T11:02:55.746Z,6.60
2022-10-01T11:05:24.407Z,7.15
2022-10-01T11:07:54.734Z,6.60
2022-10-01T11:10:41.450Z,6.90
2022-10-01T11:13:54.780Z,6.90
2022-10-01T11:16:47.598Z,8.32
2022-10-01T11:19:29.945Z,5.57
2022-10-01T11:22:14.353Z,5.47
2022-10-01T11:25:00.076Z,5.00
2022-10-01T11:27:35.871Z,5.10
2022-10-01T11:30:07.579Z,5.63
2022-10-01T11:32:39.441Z,5.40
2022-10-01T11:38:00.651Z,5.25
2022-10-01T11:40:32.357Z,3.92
2022-10-01T11:43:05.119Z,4.13
2022-10-01T11:45:34.949Z,3.45
2022-10-01T11:48:07.411Z,3.85
2022-10-01T11:50:39.330Z,4.72
2022-10-01T11:53:12.261Z,3.30
2022-10-01T11:55:43.550Z,5.35
2022-10-01T11:58:17.705Z,4.30
2022-10-01T12:00:54.382Z,3.67
2022-10-01T12:03:28.693Z,3.80
2022-10-01T12:05:56.686Z,2.92
2022-10-01T12:08:26.227Z,3.80
2022-10-01T12:10:56.447Z,3.10
2022-10-01T12:13:30.005Z,3.05
2022-10-01T12:16:00.981Z,3.40
2022-10-01T12:18:32.265Z,2.77
2022-10-01T12:21:01.605Z,2.80
2022-10-01T12:23:30.742Z,3.72
2022-10-01T12:26:06.509Z,2.97
2022-10-01T12:28:40.905Z,3.22
2022-10-01T12:31:14.630Z,3.10
2022-10-01T12:34:02.865Z,3.20
2022-10-01T12:36:43.146Z,3.85
2022-10-01T12:39:25.855Z,5.30
2022-10-01T12:42:02.633Z,5.38
2022-10-01T12:44:50.078Z,3.90
2022-10-01T12:47:35.704Z,6.47
2022-10-01T12:50:12.181Z,9.55
2022-10-01T12:52:45.103Z,12.73
2022-10-01T12:55:23.660Z,9.07
2022-10-01T12:58:03.531Z,7.97
2022-10-01T13:00:39.028Z,7.20
2022-10-01T13:03:34.282Z,4.88
2022-10-01T13:06:11.519Z,6.07
2022-10-01T13:08:52.387Z,8.52
2022-10-01T13:11:30.150Z,5.40
2022-10-01T13:13:57.656Z,5.85
2022-10-01T13:16:31.659Z,3.90
2022-10-01T13:19:05.685Z,4.07
2022-10-01T13:21:50.024Z,3.50
2022-10-01T13:24:24.907Z,5.70
2022-10-01T13:26:57.882Z,4.07
2022-10-01T13:29:35.373Z,5.63
2022-10-01T13:32:23.031Z,7.78
2022-10-01T13:34:49.570Z,5.78
2022-10-01T13:37:18.004Z,5.15
2022-10-01T13:39:46.068Z,4.50
2022-10-01T13:42:22.167Z,3.45
2022-10-01T13:44:53.633Z,3.35
2022-10-01T13:47:22.823Z,4.97
2022-10-01T13:49:56.498Z,3.85
2022-10-01T13:52:23.203Z,5.82
2022-10-01T13:54:53.203Z,3.85
2022-10-01T13:57:29.026Z,3.47
2022-10-01T14:00:00.715Z,2.58
2022-10-01T14:02:34.767Z,2.70
2022-10-01T14:05:27.919Z,2.35
2022-10-01T14:08:02.867Z,3.72
2022-10-01T14:10:36.481Z,2.58
2022-10-01T14:13:04.699Z,3.22
2022-10-01T14:15:41.489Z,2.40
2022-10-01T14:18:14.650Z,2.72
2022-10-01T14:20:53.661Z,4.30
2022-10-01T14:23:27.767Z,5.40
2022-10-01T14:26:01.885Z,3.20
2022-10-01T14:28:59.406Z,3.80
2022-10-01T14:31:37.001Z,3.08
2022-10-01T14:34:38.775Z,3.20
2022-10-01T14:37:07.223Z,3.88
2022-10-01T14:39:33.888Z,2.95
2022-10-01T14:42:16.640Z,3.70
2022-10-01T14:44:45.971Z,2.95
2022-10-01T14:47:16.843Z,3.22
2022-10-01T14:49:44.779Z,4.65
2022-10-01T14:52:19.903Z,2.80
2022-10-01T14:54:50.879Z,2.80
2022-10-01T14:57:26.604Z,6.37
2022-10-01T14:59:53.903Z,3.20
2022-10-01T15:02:22.420Z,3.42
2022-10-01T15:04:51.838Z,4.05
2022-10-01T15:07:18.742Z,2.80
2022-10-01T15:09:45.909Z,3.75
2022-10-01T15:12:13.654Z,7.03
2022-10-01T15:14:41.966Z,2.90
2022-10-01T15:17:18.815Z,4.97
2022-10-01T15:19:46.660Z,5.80
2022-10-01T15:22:14.638Z,3.38
2022-10-01T15:24:43.390Z,4.75
2022-10-01T15:27:12.260Z,4.43
2022-10-01T15:29:40.072Z,6.55
2022-10-01T15:32:07.466Z,7.68
2022-10-01T15:34:34.871Z,3.90
2022-10-01T15:37:01.901Z,3.40
2022-10-01T15:39:32.333Z,5.68
2022-10-01T15:42:01.219Z,3.53
2022-10-01T15:44:40.859Z,3.08
2022-10-01T15:47:34.563Z,5.22
2022-10-01T15:50:03.503Z,3.25
2022-10-01T15:52:33.507Z,3.53
2022-10-01T15:55:01.534Z,3.40
2022-10-01T15:57:28.961Z,4.10
2022-10-01T15:59:56.693Z,2.88
2022-10-01T16:02:26.692Z,5.55
2022-10-01T16:04:53.913Z,2.80
2022-10-01T16:07:25.318Z,3.70
2022-10-01T16:09:55.730Z,5.20
2022-10-01T16:12:23.728Z,5.00
2022-10-01T16:15:00.986Z,5.10
2022-10-01T16:17:34.362Z,4.70
2022-10-01T16:20:17.325Z,3.53
2022-10-01T16:22:44.320Z,3.00
2022-10-01T16:25:31.992Z,2.95
2022-10-01T16:28:00.965Z,3.40
2022-10-01T16:30:28.764Z,4.07
2022-10-01T16:32:56.753Z,8.65
2022-10-01T16:35:24.759Z,6.68
2022-10-01T16:37:52.406Z,6.78
2022-10-01T16:40:21.203Z,6.07
2022-10-01T16:42:48.942Z,3.05
2022-10-01T16:45:19.624Z,6.97
2022-10-01T16:47:46.295Z,4.35
2022-10-01T16:50:15.510Z,5.55
2022-10-01T16:52:42.225Z,3.50
2022-10-01T16:55:17.114Z,3.78
2022-10-01T16:57:43.759Z,5.43
2022-10-01T17:00:13.506Z,5.78
2022-10-01T17:02:41.392Z,4.38
2022-10-01T17:05:17.592Z,8.55
2022-10-01T17:07:44.143Z,6.95
2022-10-01T17:10:10.799Z,4.90
2022-10-01T17:12:37.352Z,8.07
2022-10-01T17:15:04.587Z,4.88
2022-10-01T17:17:31.157Z,4.60
2022-10-01T17:19:59.116Z,5.78
2022-10-01T17:22:25.661Z,7.45
2022-10-01T17:24:52.240Z,6.70
2022-10-01T17:27:18.832Z,4.97
2022-10-01T17:29:45.585Z,5.55
2022-10-01T17:32:12.127Z,6.75
2022-10-01T17:34:38.688Z,10.52
2022-10-01T17:37:06.560Z,17.55
2022-10-01T17:39:33.153Z,4.28
2022-10-01T17:41:59.709Z,11.07
2022-10-01T17:44:26.267Z,7.10
2022-10-01T17:46:52.842Z,5.07
2022-10-01T17:49:19.393Z,4.20
2022-10-01T17:51:45.963Z,4.78
2022-10-01T17:54:13.871Z,4.50
2022-10-01T17:56:40.435Z,12.15
2022-10-01T17:59:07.002Z,7.80
2022-10-01T18:01:33.836Z,8.18
2022-10-01T18:04:00.716Z,6.35
2022-10-01T18:06:27.445Z,6.60
2022-10-01T18:08:56.204Z,3.88
2022-10-01T18:11:25.879Z,4.60
2022-10-01T18:13:52.536Z,21.50
2022-10-01T18:16:19.819Z,8.00
2022-10-01T18:21:33.403Z,10.02
2022-10-01T18:24:04.124Z,8.15
2022-10-01T18:26:32.877Z,7.03
2022-10-01T18:29:00.158Z,6.85
2022-10-01T18:31:36.099Z,3.47
2022-10-01T18:34:12.097Z,4.22
2022-10-01T18:36:47.250Z,3.15
2022-10-01T18:39:17.352Z,3.45
2022-10-01T18:41:45.387Z,3.45
2022-10-01T18:44:17.999Z,7.13
2022-10-01T18:46:55.730Z,4.35
2022-10-01T18:49:42.732Z,3.65
2022-10-01T18:52:18.610Z,6.88
2022-10-01T18:55:05.898Z,9.38
2022-10-01T18:57:50.855Z,8.02
2022-10-01T19:00:19.552Z,7.95
2022-10-01T19:03:18.866Z,2.88
2022-10-01T19:06:11.362Z,3.90
2022-10-01T19:08:51.106Z,2.63
2022-10-01T19:11:25.782Z,4.22
2022-10-01T19:14:16.036Z,3.70
2022-10-01T19:16:50.723Z,3.53
2022-10-01T19:19:30.068Z,3.35
2022-10-01T19:22:00.757Z,4.95
2022-10-01T19:24:47.125Z,4.75
2022-10-01T19:27:24.193Z,3.90
2022-10-01T19:30:06.116Z,4.38
2022-10-01T19:32:41.054Z,3.95
2022-10-01T19:35:16.743Z,3.10
2022-10-01T19:37:47.732Z,3.85
2022-10-01T19:40:22.015Z,4.00
2022-10-01T19:42:53.863Z,3.88
2022-10-01T19:47:57.257Z,4.30
2022-10-01T19:50:27.476Z,3.30
2022-10-01T19:52:57.991Z,2.15
2022-10-01T19:55:26.226Z,1.90
2022-10-01T19:57:52.754Z,2.53
2022-10-01T20:00:21.070Z,2.80
2022-10-01T20:02:56.541Z,2.30
2022-10-01T20:05:28.118Z,2.03
2022-10-01T20:08:00.208Z,2.63
2022-10-01T20:10:33.153Z,2.60
2022-10-01T20:13:15.822Z,2.75
2022-10-01T20:15:49.246Z,2.40
2022-10-01T20:18:28.404Z,2.78
2022-10-01T20:21:10.360Z,3.10
2022-10-01T20:23:45.249Z,2.97
2022-10-01T20:26:21.290Z,2.85
2022-10-01T20:29:11.583Z,2.80
2022-10-01T20:31:44.751Z,2.88
2022-10-01T20:34:21.756Z,2.80
2022-10-01T20:36:57.582Z,2.97
2022-10-01T20:39:28.667Z,2.47
2022-10-01T20:41:56.095Z,2.83
2022-10-01T20:44:27.222Z,2.50
2022-10-01T20:46:59.880Z,2.33
2022-10-01T20:49:32.355Z,2.25
2022-10-01T20:52:03.546Z,2.60
2022-10-01T20:54:35.113Z,2.67
2022-10-01T20:57:07.643Z,2.38
2022-10-01T20:59:39.987Z,2.70
2022-10-01T21:02:23.919Z,3.08
2022-10-01T21:04:56.704Z,2.80
2022-10-01T21:07:32.632Z,2.28
2022-10-01T21:10:01.553Z,3.30
2022-10-01T21:12:35.991Z,2.95
2022-10-01T21:15:03.369Z,3.53
2022-10-01T21:17:40.092Z,3.10
2022-10-01T21:20:42.931Z,1.80
2022-10-01T21:23:25.205Z,1.40
2022-10-01T21:26:07.913Z,1.50
2022-10-01T21:29:02.003Z,1.52
2022-10-01T21:31:40.473Z,1.73
2022-10-01T21:34:13.580Z,1.38
2022-10-01T21:36:58.637Z,2.45
2022-10-01T21:39:32.377Z,8.07
2022-10-01T21:42:12.760Z,6.53
2022-10-01T21:44:59.761Z,1.50
2022-10-01T21:47:37.810Z,1.83
2022-10-01T21:50:15.372Z,2.60
2022-10-01T21:52:56.542Z,3.35
2022-10-01T21:55:41.836Z,1.40
2022-10-01T21:58:25.543Z,1.58
2022-10-01T22:00:59.030Z,1.60
2022-10-01T22:03:34.092Z,1.90
2022-10-01T22:06:07.759Z,1.25
2022-10-01T22:08:55.090Z,1.40
2022-10-01T22:11:24.364Z,1.50
2022-10-01T22:13:54.761Z,1.48
2022-10-01T22:16:24.157Z,1.20
2022-10-01T22:18:54.165Z,1.30
2022-10-01T22:21:25.400Z,1.35
2022-10-01T22:24:01.422Z,1.50
2022-10-01T22:26:32.421Z,1.50
2022-10-01T22:29:01.008Z,1.40
2022-10-01T22:31:32.772Z,2.28
2022-10-01T22:34:03.041Z,1.40
2022-10-01T22:36:35.147Z,1.67
2022-10-01T22:39:11.083Z,1.67
2022-10-01T22:41:42.163Z,1.52
2022-10-01T22:44:13.893Z,1.40
2022-10-01T22:46:58.593Z,1.50
2022-10-01T22:49:36.537Z,2.63
2022-10-01T22:52:17.787Z,2.35
2022-10-01T22:54:56.234Z,2.70
2022-10-01T22:57:45.484Z,2.28
2022-10-01T23:00:14.445Z,1.80
2022-10-01T23:02:45.444Z,1.55
2022-10-01T23:05:26.508Z,2.50
2022-10-01T23:08:03.160Z,1.70
2022-10-01T23:10:38.531Z,3.08
2022-10-01T23:13:17.212Z,10.48
2022-10-01T23:15:50.907Z,8.23
2022-10-01T23:18:29.396Z,3.40
2022-10-01T23:21:08.976Z,2.15
2022-10-01T23:23:35.540Z,2.03
2022-10-01T23:26:19.298Z,4.20
2022-10-01T23:29:02.612Z,6.68
2022-10-01T23:31:36.237Z,2.65
2022-10-01T23:34:21.545Z,2.17
2022-10-01T23:36:54.317Z,1.60
2022-10-01T23:39:44.267Z,6.05
2022-10-01T23:42:24.255Z,4.50
2022-10-01T23:45:02.093Z,2.13
2022-10-01T23:47:36.306Z,1.45
2022-10-01T23:50:05.871Z,1.50
2022-10-01T23:52:40.896Z,1.60
2022-10-01T23:55:15.002Z,1.42
2022-10-01T23:57:43.907Z,2.15
